Airfield :
LOGIN :

Register | Disclaimer

   EN    FR    IT 

 










Legend :    VFR   Marginal VFR   IFR   Intensive IFR   Very Intensive IFR
Visi :
Ceiling :
>= 8 km
>= 3000ft
5 to 8 km
1000 to 3000 ft
1500m to 5 km
500 to 1000 ft
800 to 1500m
200 to 500 ft
< 800m
< 200 ft
Symbols :   Thunderstorms  Fog  Heavy snow  Heavy precipitations  Wind > 20 kt
SIGMETs :     Misc.  Thunderstorms  Icing  Turbulence  Mountain Waves  Volcanic Ashes






- Airport Elevation : 388 ft
- IATA code : QYR


LFQB - Troyes Barberey

CURRENT METAR :
  • 160400Z AUTO 17009KT CAVOK 11/10 Q1013

EXPIRED METARs :
  • 160330Z AUTO 18009KT 9999 -RA NSC 11/10 Q1013
  • 160300Z AUTO 15010KT CAVOK 11/10 Q1013
  • 160230Z AUTO 16009KT 9999 FEW027 BKN078 OVC098 11/10 Q1013
  • 160200Z AUTO 16010KT 9999 SCT027/// BKN068/// OVC088/// ///TCU 11/10 Q1014
  • 160130Z AUTO 16011KT 9999 SCT026/// SCT032/// BKN038/// ///TCU 11/10 Q1014
  • 160100Z AUTO 16009KT 9999 FEW033/// OVC064/// ///TCU 11/09 Q1014

TAF N/A



MET'MAP, your aeronautical weather chart ! - Copyright ORBIFLY December 2007 - Disclaimer

ORBIFLY MET'MAP TEAM :

Programming & Development : Alexandra Zaïnal
Concept & Development : Baudouin d'Aumeries
Co-Development & Prog : Marc-Olivier Méhu
Technical & hardware support : Manuel Goepfert

Contact : metmap@orbifly.com




SOURCES & CREDITS :

   NOAA